createdAt,value
2018-12-11T00:00:24.983Z,102645.72
2018-12-11T00:02:53.261Z,102639.66
2018-12-11T00:05:21.836Z,102641.81
2018-12-11T00:07:51.524Z,102641.83
2018-12-11T00:10:19.804Z,102629.27
2018-12-11T00:12:48.219Z,102630.56
2018-12-11T00:15:17.296Z,102634.89
2018-12-11T00:17:45.585Z,102642.23
2018-12-11T00:20:13.951Z,102633.58
2018-12-11T00:22:42.884Z,102635.74
2018-12-11T00:25:11.421Z,102634.88
2018-12-11T00:27:39.834Z,102637.48
2018-12-11T00:30:08.685Z,102634.03
2018-12-11T00:32:36.914Z,102631.00
2018-12-11T00:35:06.136Z,102626.26
2018-12-11T00:37:34.383Z,102624.53
2018-12-11T00:40:02.714Z,102620.66
2018-12-11T00:42:31.148Z,102621.89
2018-12-11T00:44:59.408Z,102618.03
2018-12-11T00:47:27.650Z,102621.87
2018-12-11T00:49:56.011Z,102622.73
2018-12-11T00:52:24.338Z,102616.70
2018-12-11T00:54:53.605Z,102623.56
2018-12-11T00:57:21.855Z,102619.68
2018-12-11T00:59:51.690Z,102616.23
2018-12-11T01:02:20.093Z,102611.93
2018-12-11T01:04:48.550Z,102618.41
2018-12-11T01:07:16.869Z,102609.33
2018-12-11T01:09:45.313Z,102612.36
2018-12-11T01:12:13.691Z,102606.70
2018-12-11T01:14:41.982Z,102610.17
2018-12-11T01:17:10.196Z,102620.12
2018-12-11T01:19:38.589Z,102616.64
2018-12-11T01:22:06.913Z,102615.79
2018-12-11T01:24:35.292Z,102610.55
2018-12-11T01:27:03.806Z,102611.44
2018-12-11T01:29:32.050Z,102613.17
2018-12-11T01:32:00.408Z,102608.47
2018-12-11T01:34:28.734Z,102602.86
2018-12-11T01:36:56.961Z,102610.64
2018-12-11T01:39:25.190Z,102616.25
2018-12-11T01:41:53.547Z,102608.06
2018-12-11T01:44:21.855Z,102612.80
2018-12-11T01:46:50.396Z,102615.41
2018-12-11T01:49:18.802Z,102611.93
2018-12-11T01:51:47.047Z,102616.25
2018-12-11T01:54:15.307Z,102617.14
2018-12-11T01:56:43.706Z,102617.98
2018-12-11T01:59:11.899Z,102620.16
2018-12-11T02:01:40.212Z,102619.28
2018-12-11T02:04:08.619Z,102616.27
2018-12-11T02:06:37.000Z,102617.55
2018-12-11T02:09:06.648Z,102614.52
2018-12-11T02:11:35.257Z,102617.11
2018-12-11T02:14:03.668Z,102611.48
2018-12-11T02:16:45.359Z,102613.20
2018-12-11T02:19:13.878Z,102611.05
2018-12-11T02:21:42.429Z,102610.17
2018-12-11T02:24:10.790Z,102611.03
2018-12-11T02:26:39.297Z,102610.59
2018-12-11T02:29:07.918Z,102609.70
2018-12-11T02:31:36.724Z,102615.35
2018-12-11T02:34:05.974Z,102607.14
2018-12-11T02:36:35.394Z,102607.55
2018-12-11T02:39:07.103Z,102603.22
2018-12-11T02:41:35.831Z,102614.06
2018-12-11T02:44:04.908Z,102610.14
2018-12-11T02:46:33.790Z,102610.14
2018-12-11T02:49:07.188Z,102617.91
2018-12-11T02:51:36.487Z,102623.53
2018-12-11T02:54:05.390Z,102621.80
2018-12-11T02:56:36.226Z,102618.73
2018-12-11T02:59:07.186Z,102618.23
2018-12-11T03:01:36.744Z,102612.25
2018-12-11T03:04:06.242Z,102614.44
2018-12-11T03:06:35.326Z,102619.17
2018-12-11T03:09:06.796Z,102616.98
2018-12-11T03:11:35.540Z,102621.27
2018-12-11T03:14:04.870Z,102607.88
2018-12-11T03:16:33.467Z,102618.28
2018-12-11T03:19:02.152Z,102620.46
2018-12-11T03:21:30.906Z,102618.28
2018-12-11T03:24:00.482Z,102618.28
2018-12-11T03:26:29.133Z,102618.72
2018-12-11T03:28:58.701Z,102615.28
2018-12-11T03:31:27.309Z,102608.81
2018-12-11T03:33:56.293Z,102606.22
2018-12-11T03:36:25.398Z,102604.93
2018-12-11T03:38:54.886Z,102604.11
2018-12-11T03:41:23.806Z,102601.55
2018-12-11T03:43:52.624Z,102608.02
2018-12-11T03:46:21.548Z,102608.02
2018-12-11T03:48:51.144Z,102607.58
2018-12-11T03:51:21.234Z,102605.84
2018-12-11T03:53:50.260Z,102605.41
2018-12-11T03:56:19.082Z,102600.19
2018-12-11T03:58:48.071Z,102604.92
2018-12-11T04:01:16.934Z,102607.96
2018-12-11T04:03:46.141Z,102604.45
2018-12-11T04:06:15.609Z,102601.00
2018-12-11T04:08:44.868Z,102611.77
2018-12-11T04:11:14.062Z,102610.95
2018-12-11T04:13:43.680Z,102602.78
2018-12-11T04:16:12.302Z,102604.96
2018-12-11T04:18:40.910Z,102604.96
2018-12-11T04:21:09.402Z,102602.40
2018-12-11T04:23:37.824Z,102612.31
2018-12-11T04:26:08.298Z,102614.06
2018-12-11T04:28:36.793Z,102604.92
2018-12-11T04:31:05.302Z,102606.58
2018-12-11T04:33:33.989Z,102617.42
2018-12-11T04:36:02.435Z,102611.44
2018-12-11T04:38:30.942Z,102611.47
2018-12-11T04:40:59.310Z,102615.38
2018-12-11T04:43:27.888Z,102613.22
2018-12-11T04:45:56.310Z,102601.98
2018-12-11T04:48:24.659Z,102603.74
2018-12-11T04:50:53.156Z,102607.62
2018-12-11T04:53:21.625Z,102609.81
2018-12-11T04:55:50.015Z,102615.00
2018-12-11T04:58:18.567Z,102613.72
2018-12-11T05:00:47.008Z,102626.25
2018-12-11T05:03:15.475Z,102633.61
2018-12-11T05:05:43.936Z,102643.95
2018-12-11T05:08:15.615Z,102636.63
2018-12-11T05:10:45.139Z,102631.44
2018-12-11T05:13:13.518Z,102627.55
2018-12-11T05:15:42.049Z,102627.55
2018-12-11T05:18:10.451Z,102632.73
2018-12-11T05:20:38.784Z,102621.09
2018-12-11T05:23:07.408Z,102617.61
2018-12-11T05:25:35.857Z,102615.02
2018-12-11T05:28:04.984Z,102611.55
2018-12-11T05:30:33.466Z,102611.09
2018-12-11T05:33:02.121Z,102602.92
2018-12-11T05:35:32.279Z,102602.92
2018-12-11T05:38:00.729Z,102601.57
2018-12-11T05:40:34.978Z,102605.45
2018-12-11T05:43:04.407Z,102608.02
2018-12-11T05:45:32.693Z,102598.05
2018-12-11T05:48:01.283Z,102594.98
2018-12-11T05:50:29.594Z,102599.32
2018-12-11T05:52:57.868Z,102598.02
2018-12-11T05:55:26.324Z,102588.50
2018-12-11T05:57:55.240Z,102586.77
2018-12-11T06:00:23.736Z,102586.36
2018-12-11T06:02:52.238Z,102580.34
2018-12-11T06:05:20.713Z,102582.52
2018-12-11T06:07:49.277Z,102589.04
2018-12-11T06:10:17.671Z,102587.31
2018-12-11T06:12:46.053Z,102600.73
2018-12-11T06:15:14.622Z,102596.01
2018-12-11T06:17:43.051Z,102605.07
2018-12-11T06:20:11.783Z,102604.66
2018-12-11T06:22:40.443Z,102599.48
2018-12-11T06:25:08.775Z,102597.73
2018-12-11T06:27:37.233Z,102596.86
2018-12-11T06:30:07.653Z,102601.57
2018-12-11T06:32:36.236Z,102605.91
2018-12-11T06:35:05.122Z,102603.73
2018-12-11T06:37:33.763Z,102604.17
2018-12-11T06:40:02.146Z,102601.56
2018-12-11T06:42:30.831Z,102598.98
2018-12-11T06:44:59.396Z,102598.09
2018-12-11T06:47:28.014Z,102602.84
2018-12-11T06:49:56.686Z,102602.39
2018-12-11T06:52:25.117Z,102605.84
2018-12-11T06:54:53.664Z,102604.98
2018-12-11T06:57:22.617Z,102613.62
2018-12-11T06:59:52.038Z,102606.73
2018-12-11T07:02:21.420Z,102612.34
2018-12-11T07:04:49.842Z,102624.02
2018-12-11T07:07:18.364Z,102624.02
2018-12-11T07:09:46.852Z,102614.54
2018-12-11T07:12:16.091Z,102616.27
2018-12-11T07:14:45.662Z,102612.41
2018-12-11T07:17:14.197Z,102616.33
2018-12-11T07:19:42.823Z,102614.14
2018-12-11T07:22:11.221Z,102614.59
2018-12-11T07:24:39.712Z,102612.43
2018-12-11T07:27:08.132Z,102618.47
2018-12-11T07:29:36.568Z,102623.16
2018-12-11T07:32:05.262Z,102630.11
2018-12-11T07:34:33.705Z,102634.05
2018-12-11T07:37:02.856Z,102629.72
2018-12-11T07:39:31.950Z,102633.16
2018-12-11T07:42:00.507Z,102632.29
2018-12-11T07:44:29.815Z,102640.06
2018-12-11T07:46:58.465Z,102630.55
2018-12-11T07:49:27.011Z,102633.56
2018-12-11T07:51:55.526Z,102630.50
2018-12-11T07:54:24.159Z,102630.91
2018-12-11T07:56:52.791Z,102625.28
2018-12-11T07:59:21.430Z,102624.02
2018-12-11T08:01:49.978Z,102630.48
2018-12-11T08:04:18.436Z,102634.38
2018-12-11T08:06:47.218Z,102633.12
2018-12-11T08:09:15.818Z,102646.55
2018-12-11T08:11:44.347Z,102647.84
2018-12-11T08:14:13.011Z,102649.14
2018-12-11T08:16:42.224Z,102649.14
2018-12-11T08:19:11.639Z,102651.70
2018-12-11T08:21:40.148Z,102642.61
2018-12-11T08:24:08.618Z,102639.14
2018-12-11T08:26:37.262Z,102636.94
2018-12-11T08:29:06.167Z,102641.70
2018-12-11T08:31:34.694Z,102653.81
2018-12-11T08:34:03.278Z,102649.08
2018-12-11T08:36:31.721Z,102657.25
2018-12-11T08:39:00.287Z,102649.89
2018-12-11T08:41:28.768Z,102654.24
2018-12-11T08:43:57.176Z,102652.94
2018-12-11T08:46:25.760Z,102639.95
2018-12-11T08:48:54.258Z,102645.98
2018-12-11T08:51:22.811Z,102645.50
2018-12-11T08:53:51.234Z,102641.20
2018-12-11T08:56:19.878Z,102639.51
2018-12-11T08:58:48.436Z,102639.48
2018-12-11T09:01:17.022Z,102640.78
2018-12-11T09:03:45.555Z,102646.83
2018-12-11T09:06:14.278Z,102655.07
2018-12-11T09:08:42.946Z,102651.19
2018-12-11T09:11:11.590Z,102657.65
2018-12-11T09:13:40.215Z,102668.41
2018-12-11T09:16:08.815Z,102665.30
2018-12-11T09:18:37.918Z,102645.33
2018-12-11T09:21:07.180Z,102643.58
2018-12-11T09:23:36.102Z,102651.87
2018-12-11T09:26:04.747Z,102657.14
2018-12-11T09:28:33.367Z,102657.97
2018-12-11T09:31:02.369Z,102655.36
2018-12-11T09:33:30.880Z,102660.11
2018-12-11T09:36:00.415Z,102665.36
2018-12-11T09:38:28.804Z,102655.75
2018-12-11T09:40:57.183Z,102657.45
2018-12-11T09:43:25.765Z,102657.84
2018-12-11T09:45:55.553Z,102662.20
2018-12-11T09:48:24.673Z,102665.27
2018-12-11T09:50:53.051Z,102664.75
2018-12-11T09:53:22.405Z,102659.47
2018-12-11T09:55:51.210Z,102663.31
2018-12-11T09:58:19.786Z,102664.08
2018-12-11T10:00:49.024Z,102670.41
2018-12-11T10:03:17.454Z,102669.55
2018-12-11T10:05:46.049Z,102663.87
2018-12-11T10:08:15.887Z,102665.58
2018-12-11T10:10:44.437Z,102666.34
2018-12-11T10:13:12.963Z,102669.66
2018-12-11T10:15:41.499Z,102469.45
2018-12-11T10:18:10.166Z,102671.20
2018-12-11T10:20:38.766Z,102669.77
2018-12-11T10:23:07.709Z,102668.29
2018-12-11T10:25:37.024Z,102668.50
2018-12-11T10:28:06.287Z,102672.22
2018-12-11T10:30:40.598Z,102666.27
2018-12-11T10:33:09.038Z,102673.55
2018-12-11T10:35:37.500Z,102666.41
2018-12-11T10:38:06.154Z,102662.84
2018-12-11T10:40:35.453Z,102669.02
2018-12-11T10:43:04.205Z,102664.60
2018-12-11T10:45:34.825Z,102660.64
2018-12-11T10:48:03.677Z,102658.81
2018-12-11T10:50:32.207Z,102659.09
2018-12-11T10:53:01.915Z,102660.73
2018-12-11T10:55:31.633Z,102665.34
2018-12-11T10:58:00.192Z,102656.59
2018-12-11T11:00:34.771Z,102651.97
2018-12-11T11:03:04.852Z,102653.50
2018-12-11T11:05:33.577Z,102643.41
2018-12-11T11:08:02.320Z,102643.09
2018-12-11T11:10:31.487Z,102640.64
2018-12-11T11:12:59.978Z,102635.81
2018-12-11T11:15:28.660Z,102630.00
2018-12-11T11:17:57.182Z,102624.13
2018-12-11T11:20:25.795Z,102621.12
2018-12-11T11:22:55.236Z,102625.69
2018-12-11T11:25:23.777Z,102618.86
2018-12-11T11:27:52.220Z,102626.11
2018-12-11T11:30:20.721Z,102624.55
2018-12-11T11:32:49.232Z,102629.54
2018-12-11T11:35:17.924Z,102628.00
2018-12-11T11:37:46.259Z,102624.82
2018-12-11T11:40:20.317Z,102631.17
2018-12-11T11:42:48.916Z,102625.02
2018-12-11T11:45:17.510Z,102616.83
2018-12-11T11:47:46.092Z,102609.45
2018-12-11T11:50:16.820Z,102610.17
2018-12-11T11:52:45.440Z,102613.86
2018-12-11T11:55:14.650Z,102607.86
2018-12-11T11:57:43.859Z,102602.38
2018-12-11T12:00:14.960Z,102604.36
2018-12-11T12:02:43.336Z,102604.56
2018-12-11T12:05:12.960Z,102604.56
2018-12-11T12:07:41.662Z,102606.81
2018-12-11T12:10:11.213Z,102606.77
2018-12-11T12:12:40.670Z,102602.56
2018-12-11T12:15:09.922Z,102601.24
2018-12-11T12:17:38.378Z,102596.06
2018-12-11T12:20:10.282Z,102600.05
2018-12-11T12:22:38.702Z,102597.69
2018-12-11T12:25:08.146Z,102589.05
2018-12-11T12:27:36.708Z,102595.89
2018-12-11T12:30:06.973Z,102598.89
2018-12-11T12:32:35.560Z,102597.62
2018-12-11T12:35:05.053Z,102597.29
2018-12-11T12:37:33.678Z,102598.28
2018-12-11T12:40:02.780Z,102597.14
2018-12-11T12:42:31.395Z,102593.51
2018-12-11T12:45:00.416Z,102594.28
2018-12-11T12:47:28.894Z,102589.05
2018-12-11T12:49:57.524Z,102584.12
2018-12-11T12:52:27.085Z,102590.55
2018-12-11T12:54:56.114Z,102587.58
2018-12-11T12:57:25.003Z,102592.14
2018-12-11T12:59:53.555Z,102597.97
2018-12-11T13:02:22.030Z,102600.59
2018-12-11T13:04:50.590Z,102591.08
2018-12-11T13:07:19.071Z,102592.27
2018-12-11T13:09:47.564Z,102588.32
2018-12-11T13:12:16.209Z,102585.22
2018-12-11T13:17:24.479Z,102580.69
2018-12-11T13:19:53.510Z,102577.29
2018-12-11T13:22:21.790Z,102576.18
2018-12-11T13:24:51.502Z,102581.44
2018-12-11T13:27:19.761Z,102576.67
2018-12-11T13:29:48.073Z,102572.72
2018-12-11T13:32:16.450Z,102575.56
2018-12-11T13:34:44.718Z,102568.11
2018-12-11T13:37:13.068Z,102574.87
2018-12-11T13:39:41.458Z,102572.86
2018-12-11T13:42:09.931Z,102560.73
2018-12-11T13:44:38.237Z,102565.52
2018-12-11T13:47:07.032Z,102562.25
2018-12-11T13:49:35.421Z,102567.20
2018-12-11T13:52:03.776Z,102568.77
2018-12-11T13:54:32.193Z,102555.61
2018-12-11T13:57:00.707Z,102565.91
2018-12-11T13:59:29.001Z,102561.72
2018-12-11T14:01:57.365Z,102551.89
2018-12-11T14:04:25.758Z,102555.61
2018-12-11T14:06:54.118Z,102565.39
2018-12-11T14:09:28.176Z,102564.77
2018-12-11T14:11:56.483Z,102561.44
2018-12-11T14:14:24.787Z,102567.22
2018-12-11T14:16:53.587Z,102563.23
2018-12-11T14:19:21.974Z,102571.94
2018-12-11T14:21:51.380Z,102567.55
2018-12-11T14:24:19.895Z,102576.45
2018-12-11T14:26:48.144Z,102573.98
2018-12-11T14:29:16.617Z,102577.97
2018-12-11T14:31:45.171Z,102586.48
2018-12-11T14:34:13.754Z,102586.48
2018-12-11T14:36:41.982Z,102586.17
2018-12-11T14:39:10.380Z,102588.28
2018-12-11T14:41:38.758Z,102588.28
2018-12-11T14:44:07.077Z,102587.86
2018-12-11T14:46:35.825Z,102585.72
2018-12-11T14:49:04.365Z,102581.73
2018-12-11T14:51:32.625Z,102575.06
2018-12-11T14:54:01.152Z,102575.79
2018-12-11T14:56:29.459Z,102583.56
2018-12-11T14:58:57.750Z,102573.45
2018-12-11T15:01:26.414Z,102580.17
2018-12-11T15:03:54.688Z,102578.50
2018-12-11T15:06:22.988Z,102584.86
2018-12-11T15:08:54.394Z,102574.85
2018-12-11T15:11:22.735Z,102574.62
2018-12-11T15:13:52.197Z,102578.75
2018-12-11T15:16:20.829Z,102578.22
2018-12-11T15:18:49.685Z,102572.53
2018-12-11T15:21:18.109Z,102569.99
2018-12-11T15:23:46.491Z,102569.56
2018-12-11T15:26:14.876Z,102570.20
2018-12-11T15:28:43.124Z,102569.53
2018-12-11T15:31:13.295Z,102568.89
2018-12-11T15:33:41.965Z,102571.21
2018-12-11T15:36:10.300Z,102564.81
2018-12-11T15:38:38.601Z,102572.30
2018-12-11T15:41:07.009Z,102565.41
2018-12-11T15:43:35.278Z,102574.64
2018-12-11T15:46:03.607Z,102578.69
2018-12-11T15:48:32.105Z,102574.44
2018-12-11T15:51:00.448Z,102583.23
2018-12-11T15:53:28.772Z,102585.13
2018-12-11T15:55:57.205Z,102594.23
2018-12-11T15:58:25.816Z,102596.01
2018-12-11T16:00:54.119Z,102585.66
2018-12-11T16:03:22.530Z,102591.89
2018-12-11T16:05:51.919Z,102590.50
2018-12-11T16:08:20.181Z,102596.33
2018-12-11T16:10:48.705Z,102596.06
2018-12-11T16:13:16.951Z,102594.57
2018-12-11T16:15:45.309Z,102591.11
2018-12-11T16:18:13.565Z,102592.81
2018-12-11T16:20:42.943Z,102598.45
2018-12-11T16:23:11.520Z,102587.53
2018-12-11T16:25:39.947Z,102595.34
2018-12-11T16:28:08.290Z,102581.77
2018-12-11T16:30:36.779Z,102591.28
2018-12-11T16:33:05.080Z,102585.27
2018-12-11T16:35:33.401Z,102593.53
2018-12-11T16:38:01.777Z,102597.35
2018-12-11T16:40:30.076Z,102602.23
2018-12-11T16:42:58.431Z,102597.72
2018-12-11T16:45:27.209Z,102600.39
2018-12-11T16:47:55.471Z,102596.44
2018-12-11T16:50:23.708Z,102601.39
2018-12-11T16:52:53.099Z,102598.79
2018-12-11T16:55:21.490Z,102600.52
2018-12-11T16:57:50.106Z,102600.04
2018-12-11T17:00:31.821Z,102599.31
2018-12-11T17:03:00.249Z,102598.91
2018-12-11T17:05:28.765Z,102598.53
2018-12-11T17:07:57.483Z,102595.34
2018-12-11T17:10:25.813Z,102597.93
2018-12-11T17:12:54.488Z,102597.58
2018-12-11T17:15:25.589Z,102594.56
2018-12-11T17:17:55.093Z,102600.31
2018-12-11T17:20:24.094Z,102590.02
2018-12-11T17:22:53.853Z,102599.14
2018-12-11T17:25:22.292Z,102601.70
2018-12-11T17:27:50.893Z,102608.19
2018-12-11T17:30:19.330Z,102608.58
2018-12-11T17:32:47.998Z,102610.26
2018-12-11T17:35:16.433Z,102615.03
2018-12-11T17:37:44.920Z,102611.09
2018-12-11T17:40:13.645Z,102608.91
2018-12-11T17:42:42.040Z,102620.17
2018-12-11T17:45:10.727Z,102618.86
2018-12-11T17:47:39.349Z,102622.77
2018-12-11T17:50:08.838Z,102622.30
2018-12-11T17:52:37.327Z,102621.88
2018-12-11T17:55:06.038Z,102617.52
2018-12-11T17:57:34.417Z,102621.88
2018-12-11T18:00:03.294Z,102619.36
2018-12-11T18:02:36.399Z,102617.20
2018-12-11T18:05:06.696Z,102618.94
2018-12-11T18:07:36.434Z,102624.56
2018-12-11T18:10:06.625Z,102623.67
2018-12-11T18:12:36.001Z,102633.25
2018-12-11T18:15:07.534Z,102620.63
2018-12-11T18:17:36.190Z,102626.69
2018-12-11T18:20:06.363Z,102625.78
2018-12-11T18:22:35.789Z,102637.92
2018-12-11T18:25:06.115Z,102637.05
2018-12-11T18:27:35.206Z,102640.05
2018-12-11T18:30:07.180Z,102637.83
2018-12-11T18:32:36.108Z,102641.34
2018-12-11T18:35:05.934Z,102641.84
2018-12-11T18:37:34.502Z,102642.58
2018-12-11T18:40:03.704Z,102637.81
2018-12-11T18:42:32.397Z,102633.13
2018-12-11T18:45:03.371Z,102636.91
2018-12-11T18:47:32.370Z,102642.00
2018-12-11T18:50:00.703Z,102643.23
2018-12-11T18:52:31.900Z,102642.33
2018-12-11T18:55:00.391Z,102644.10
2018-12-11T18:57:28.999Z,102653.68
2018-12-11T18:59:58.659Z,102652.30
2018-12-11T19:02:27.111Z,102652.36
2018-12-11T19:04:55.734Z,102654.92
2018-12-11T19:07:24.920Z,102652.27
2018-12-11T19:09:53.428Z,102651.86
2018-12-11T19:12:22.226Z,102649.80
2018-12-11T19:14:50.845Z,102649.63
2018-12-11T19:17:19.242Z,102641.80
2018-12-11T19:19:48.749Z,102651.25
2018-12-11T19:22:17.249Z,102650.39
2018-12-11T19:24:53.126Z,102652.95
2018-12-11T19:27:23.671Z,102647.67
2018-12-11T19:29:52.235Z,102649.88
2018-12-11T19:32:21.092Z,102654.60
2018-12-11T19:34:49.650Z,102651.97
2018-12-11T19:37:18.810Z,102654.13
2018-12-11T19:39:47.304Z,102653.73
2018-12-11T19:42:15.939Z,102654.55
2018-12-11T19:44:44.758Z,102654.22
2018-12-11T19:47:13.665Z,102655.61
2018-12-11T19:49:42.396Z,102653.06
2018-12-11T19:52:10.919Z,102645.67
2018-12-11T19:54:40.075Z,102652.63
2018-12-11T19:57:09.054Z,102649.61
2018-12-11T19:59:38.605Z,102645.84
2018-12-11T20:02:07.711Z,102638.09
2018-12-11T20:04:36.862Z,102645.48
2018-12-11T20:07:07.411Z,102639.46
2018-12-11T20:09:38.044Z,102643.01
2018-12-11T20:12:06.786Z,102646.95
2018-12-11T20:14:35.375Z,102651.80
2018-12-11T20:17:05.153Z,102653.61
2018-12-11T20:19:36.903Z,102661.86
2018-12-11T20:22:05.626Z,102656.66
2018-12-11T20:24:34.336Z,102651.15
2018-12-11T20:27:03.085Z,102657.28
2018-12-11T20:29:32.268Z,102667.67
2018-12-11T20:32:00.679Z,102668.14
2018-12-11T20:34:29.499Z,102668.17
2018-12-11T20:37:00.511Z,102675.50
2018-12-11T20:39:29.037Z,102671.20
2018-12-11T20:41:57.551Z,102673.80
2018-12-11T20:44:27.045Z,102668.56
2018-12-11T20:46:55.819Z,102676.34
2018-12-11T20:49:24.815Z,102666.78
2018-12-11T20:51:56.312Z,102672.90
2018-12-11T20:54:25.396Z,102675.10
2018-12-11T20:56:54.610Z,102673.31
2018-12-11T20:59:23.698Z,102671.16
2018-12-11T21:01:52.454Z,102666.86
2018-12-11T21:04:21.103Z,102657.77
2018-12-11T21:06:50.235Z,102655.18
2018-12-11T21:09:18.906Z,102662.09
2018-12-11T21:11:47.379Z,102655.12
2018-12-11T21:14:16.890Z,102651.17
2018-12-11T21:16:46.679Z,102650.34
2018-12-11T21:19:17.105Z,102650.30
2018-12-11T21:21:45.554Z,102652.06
2018-12-11T21:24:14.634Z,102655.55
2018-12-11T21:26:43.468Z,102656.41
2018-12-11T21:29:13.337Z,102656.06
2018-12-11T21:31:45.624Z,102654.85
2018-12-11T21:34:14.985Z,102657.44
2018-12-11T21:36:43.696Z,102648.81
2018-12-11T21:39:13.901Z,102657.05
2018-12-11T21:41:42.313Z,102660.53
2018-12-11T21:44:11.371Z,102662.25
2018-12-11T21:46:40.045Z,102666.64
2018-12-11T21:49:09.815Z,102675.76
2018-12-11T21:51:38.989Z,102672.30
2018-12-11T21:54:07.842Z,102679.24
2018-12-11T21:56:36.431Z,102670.12
2018-12-11T21:59:05.643Z,102672.31
2018-12-11T22:01:34.162Z,102667.59
2018-12-11T22:04:04.286Z,102667.14
2018-12-11T22:06:34.464Z,102671.53
2018-12-11T22:09:06.423Z,102673.30
2018-12-11T22:11:39.215Z,102668.52
2018-12-11T22:14:07.753Z,102667.67
2018-12-11T22:16:37.377Z,102666.81
2018-12-11T22:19:06.202Z,102663.34
2018-12-11T22:21:35.817Z,102668.14
2018-12-11T22:24:08.353Z,102670.31
2018-12-11T22:26:38.263Z,102667.34
2018-12-11T22:29:07.007Z,102663.45
2018-12-11T22:31:36.772Z,102670.84
2018-12-11T22:34:07.238Z,102669.12
2018-12-11T22:36:36.523Z,102664.83
2018-12-11T22:39:09.217Z,102670.50
2018-12-11T22:41:37.963Z,102660.98
2018-12-11T22:44:07.153Z,102662.33
2018-12-11T22:46:36.042Z,102663.20
2018-12-11T22:49:06.121Z,102658.47
2018-12-11T22:51:35.465Z,102663.73
2018-12-11T22:54:05.580Z,102666.32
2018-12-11T22:56:35.275Z,102660.72
2018-12-11T22:59:03.983Z,102657.27
2018-12-11T23:01:36.596Z,102657.30
2018-12-11T23:04:06.346Z,102656.86
2018-12-11T23:06:40.426Z,102658.61
2018-12-11T23:09:10.476Z,102663.84
2018-12-11T23:11:42.594Z,102661.24
2018-12-11T23:14:12.094Z,102666.47
2018-12-11T23:16:42.676Z,102671.20
2018-12-11T23:19:11.159Z,102675.97
2018-12-11T23:21:40.442Z,102679.00
2018-12-11T23:24:08.974Z,102685.04
2018-12-11T23:26:37.529Z,102681.14
2018-12-11T23:29:07.758Z,102684.16
2018-12-11T23:31:37.110Z,102682.88
2018-12-11T23:34:05.775Z,102686.33
2018-12-11T23:36:35.086Z,102679.86
2018-12-11T23:39:05.883Z,102682.42
2018-12-11T23:41:35.867Z,102682.84
2018-12-11T23:44:09.197Z,102687.11
2018-12-11T23:46:38.024Z,102674.56
2018-12-11T23:49:08.837Z,102674.56
2018-12-11T23:51:37.511Z,102659.87
2018-12-11T23:54:07.282Z,102663.72
2018-12-11T23:56:35.829Z,102660.24
2018-12-11T23:59:06.437Z,102659.80
